createdAt,value
2019-02-23T00:01:21.519Z,15.77
2019-02-23T00:03:52.245Z,18.73
2019-02-23T00:06:29.820Z,22.40
2019-02-23T00:08:55.299Z,22.77
2019-02-23T00:11:27.715Z,21.33
2019-02-23T00:13:58.421Z,20.23
2019-02-23T00:16:29.147Z,19.30
2019-02-23T00:18:59.855Z,18.90
2019-02-23T00:21:30.626Z,17.17
2019-02-23T00:24:01.517Z,17.70
2019-02-23T00:26:32.223Z,18.27
2019-02-23T00:29:03.040Z,17.40
2019-02-23T00:31:33.768Z,17.63
2019-02-23T00:34:04.544Z,18.70
2019-02-23T00:36:35.199Z,17.63
2019-02-23T00:39:06.859Z,18.80
2019-02-23T00:41:37.592Z,16.30
2019-02-23T00:44:08.288Z,16.40
2019-02-23T00:46:39.014Z,15.47
2019-02-23T00:49:09.731Z,14.50
2019-02-23T00:51:40.459Z,16.70
2019-02-23T00:54:11.164Z,15.83
2019-02-23T00:56:41.910Z,16.57
2019-02-23T00:59:12.607Z,16.60
2019-02-23T01:01:43.802Z,16.50
2019-02-23T01:04:14.569Z,15.70
2019-02-23T01:06:46.479Z,13.00
2019-02-23T01:09:17.633Z,13.47
2019-02-23T01:11:48.331Z,11.43
2019-02-23T01:14:19.105Z,12.60
2019-02-23T01:16:49.853Z,11.50
2019-02-23T01:19:20.579Z,13.73
2019-02-23T01:21:51.263Z,12.50
2019-02-23T01:24:22.050Z,11.80
2019-02-23T01:26:52.738Z,12.40
2019-02-23T01:29:23.520Z,12.50
2019-02-23T01:31:54.252Z,13.33
2019-02-23T01:34:25.040Z,12.70
2019-02-23T01:36:55.742Z,13.93
2019-02-23T01:39:26.511Z,13.97
2019-02-23T01:41:57.744Z,14.67
2019-02-23T01:44:28.481Z,16.07
2019-02-23T01:46:59.193Z,15.13
2019-02-23T01:49:29.976Z,14.33
2019-02-23T01:52:00.720Z,15.23
2019-02-23T01:54:31.527Z,15.90
2019-02-23T01:57:02.265Z,15.80
2019-02-23T01:59:33.061Z,16.43
2019-02-23T02:02:04.097Z,16.40
2019-02-23T02:04:34.872Z,16.67
2019-02-23T02:07:05.678Z,15.37
2019-02-23T02:09:36.445Z,15.27
2019-02-23T02:12:09.011Z,14.23
2019-02-23T02:14:39.808Z,15.50
2019-02-23T02:17:10.544Z,15.87
2019-02-23T02:19:41.321Z,14.37
2019-02-23T02:22:12.046Z,13.43
2019-02-23T02:24:42.813Z,13.50
2019-02-23T02:27:13.509Z,13.70
2019-02-23T02:29:44.247Z,12.47
2019-02-23T02:32:15.012Z,12.43
2019-02-23T02:34:45.799Z,14.00
2019-02-23T02:37:16.565Z,13.03
2019-02-23T02:39:47.370Z,12.67
2019-02-23T02:42:18.107Z,13.67
2019-02-23T02:44:48.873Z,12.67
2019-02-23T02:47:19.601Z,12.27
2019-02-23T02:49:50.392Z,13.27
2019-02-23T02:52:21.156Z,12.03
2019-02-23T02:54:51.948Z,11.60
2019-02-23T02:57:22.656Z,11.47
2019-02-23T02:59:53.457Z,11.97
2019-02-23T03:02:24.167Z,12.00
2019-02-23T03:04:54.963Z,11.77
2019-02-23T03:07:25.670Z,10.87
2019-02-23T03:09:56.456Z,11.53
2019-02-23T03:12:27.183Z,12.37
2019-02-23T03:14:57.919Z,13.77
2019-02-23T03:17:28.715Z,12.40
2019-02-23T03:19:59.490Z,12.87
2019-02-23T03:22:30.258Z,11.90
2019-02-23T03:25:01.014Z,10.90
2019-02-23T03:27:31.773Z,11.23
2019-02-23T03:30:02.531Z,13.00
2019-02-23T03:32:33.272Z,11.73
2019-02-23T03:35:04.020Z,11.80
2019-02-23T03:37:34.805Z,12.57
2019-02-23T03:40:06.710Z,11.70
2019-02-23T03:42:37.567Z,11.90
2019-02-23T03:45:08.284Z,12.03
2019-02-23T03:47:39.120Z,11.53
2019-02-23T03:50:09.829Z,11.57
2019-02-23T03:52:40.613Z,11.97
2019-02-23T03:55:11.430Z,12.33
2019-02-23T03:57:42.214Z,12.93
2019-02-23T04:00:12.992Z,11.70
2019-02-23T04:02:43.778Z,12.20
2019-02-23T04:05:14.508Z,11.80
2019-02-23T04:07:45.281Z,12.43
2019-02-23T04:10:16.027Z,11.47
2019-02-23T04:12:46.784Z,11.90
2019-02-23T04:15:17.580Z,12.53
2019-02-23T04:17:48.335Z,12.80
2019-02-23T04:20:19.122Z,12.67
2019-02-23T04:22:49.878Z,11.73
2019-02-23T04:25:20.614Z,11.60
2019-02-23T04:27:51.430Z,12.93
2019-02-23T04:30:22.181Z,12.70
2019-02-23T04:32:52.975Z,12.27
2019-02-23T04:35:23.712Z,13.07
2019-02-23T04:37:54.516Z,12.03
2019-02-23T04:40:25.232Z,13.30
2019-02-23T04:42:55.999Z,12.70
2019-02-23T04:45:26.794Z,12.93
2019-02-23T04:47:57.551Z,13.13
2019-02-23T04:50:28.401Z,13.90
2019-02-23T04:52:59.194Z,13.10
2019-02-23T04:55:29.999Z,13.00
2019-02-23T04:58:00.776Z,12.90
2019-02-23T05:00:31.522Z,13.30
2019-02-23T05:03:02.290Z,13.47
2019-02-23T05:05:33.045Z,13.33
2019-02-23T05:08:03.830Z,14.07
2019-02-23T05:10:34.595Z,14.23
2019-02-23T05:13:05.324Z,12.93
2019-02-23T05:15:36.068Z,13.70
2019-02-23T05:18:06.885Z,13.73
2019-02-23T05:20:37.622Z,13.73
2019-02-23T05:23:08.427Z,14.10
2019-02-23T05:25:39.151Z,14.50
2019-02-23T05:28:09.920Z,14.73
2019-02-23T05:30:40.677Z,14.37
2019-02-23T05:33:11.560Z,13.40
2019-02-23T05:35:42.268Z,14.07
2019-02-23T05:38:12.974Z,15.00
2019-02-23T05:40:43.724Z,14.17
2019-02-23T05:43:14.496Z,15.13
2019-02-23T05:45:45.283Z,14.33
2019-02-23T05:48:20.253Z,14.50
2019-02-23T05:50:51.008Z,14.17
2019-02-23T05:53:21.726Z,13.50
2019-02-23T05:55:52.559Z,14.03
2019-02-23T05:58:23.355Z,13.97
2019-02-23T06:00:54.151Z,14.93
2019-02-23T06:03:24.868Z,13.97
2019-02-23T06:05:55.694Z,14.70
2019-02-23T06:08:26.440Z,15.33
2019-02-23T06:10:57.199Z,14.67
2019-02-23T06:13:27.961Z,14.77
2019-02-23T06:15:58.739Z,14.17
2019-02-23T06:18:29.476Z,15.10
2019-02-23T06:21:00.300Z,15.30
2019-02-23T06:23:31.067Z,15.30
2019-02-23T06:26:01.884Z,15.30
2019-02-23T06:28:32.652Z,16.07
2019-02-23T06:31:03.418Z,15.27
2019-02-23T06:33:34.153Z,15.17
2019-02-23T06:36:04.958Z,15.37
2019-02-23T06:38:35.694Z,17.07
2019-02-23T06:41:06.484Z,15.03
2019-02-23T06:43:37.220Z,15.13
2019-02-23T06:46:07.981Z,15.30
2019-02-23T06:48:38.740Z,15.30
2019-02-23T06:51:09.505Z,15.23
2019-02-23T06:53:40.261Z,15.80
2019-02-23T06:56:11.100Z,15.20
2019-02-23T06:58:41.855Z,15.53
2019-02-23T07:01:12.599Z,14.37
2019-02-23T07:03:43.356Z,15.47
2019-02-23T07:06:14.113Z,15.40
2019-02-23T07:08:44.849Z,14.63
2019-02-23T07:11:17.464Z,13.83
2019-02-23T07:13:47.841Z,15.00
2019-02-23T07:16:18.598Z,15.47
2019-02-23T07:18:49.264Z,14.17
2019-02-23T07:21:19.921Z,15.13
2019-02-23T07:23:50.706Z,15.37
2019-02-23T07:26:21.432Z,13.57
2019-02-23T07:28:52.218Z,14.40
2019-02-23T07:31:22.954Z,14.87
2019-02-23T07:33:53.742Z,15.20
2019-02-23T07:36:24.457Z,14.57
2019-02-23T07:39:14.288Z,14.13
2019-02-23T07:41:45.055Z,14.00
2019-02-23T07:44:15.774Z,14.60
2019-02-23T07:46:46.507Z,13.80
2019-02-23T07:49:17.274Z,14.63
2019-02-23T07:51:48.071Z,13.93
2019-02-23T07:54:18.879Z,15.13
2019-02-23T07:56:49.591Z,14.53
2019-02-23T07:59:20.368Z,14.33
2019-02-23T08:01:51.075Z,13.37
2019-02-23T08:04:21.850Z,15.30
2019-02-23T08:06:52.566Z,14.20
2019-02-23T08:09:23.303Z,14.43
2019-02-23T08:11:54.048Z,13.30
2019-02-23T08:14:24.847Z,14.77
2019-02-23T08:16:55.581Z,13.43
2019-02-23T08:19:26.329Z,13.63
2019-02-23T08:21:57.053Z,14.07
2019-02-23T08:24:27.840Z,13.47
2019-02-23T08:26:58.577Z,13.13
2019-02-23T08:29:29.352Z,14.17
2019-02-23T08:32:00.068Z,17.60
2019-02-23T08:34:30.896Z,15.00
2019-02-23T08:37:01.701Z,12.57
2019-02-23T08:39:32.455Z,13.17
2019-02-23T08:42:03.289Z,13.03
2019-02-23T08:44:34.063Z,12.33
2019-02-23T08:47:04.848Z,12.40
2019-02-23T08:49:35.663Z,12.97
2019-02-23T08:52:07.369Z,12.17
2019-02-23T08:54:38.185Z,13.30
2019-02-23T08:57:08.962Z,12.20
2019-02-23T08:59:39.780Z,11.23
2019-02-23T09:02:10.574Z,12.33
2019-02-23T09:04:41.483Z,13.00
2019-02-23T09:07:12.227Z,12.03
2019-02-23T09:09:42.984Z,12.33
2019-02-23T09:12:13.769Z,12.30
2019-02-23T09:14:44.573Z,11.20
2019-02-23T09:17:15.312Z,12.50
2019-02-23T09:19:46.118Z,12.63
2019-02-23T09:22:17.835Z,12.20
2019-02-23T09:24:48.561Z,12.10
2019-02-23T09:27:19.328Z,11.70
2019-02-23T09:29:50.094Z,12.67
2019-02-23T09:32:20.880Z,12.23
2019-02-23T09:34:51.637Z,12.10
2019-02-23T09:37:22.364Z,11.57
2019-02-23T09:39:53.029Z,12.10
2019-02-23T09:42:23.678Z,11.10
2019-02-23T09:44:54.392Z,11.50
2019-02-23T09:47:25.179Z,11.77
2019-02-23T09:49:55.865Z,11.40
2019-02-23T09:52:26.533Z,10.13
2019-02-23T09:54:57.307Z,10.67
2019-02-23T09:57:28.093Z,11.00
2019-02-23T09:59:58.742Z,10.87
2019-02-23T10:02:29.556Z,10.10
2019-02-23T10:05:00.304Z,9.13
2019-02-23T10:07:31.008Z,9.33
2019-02-23T10:10:01.741Z,9.10
2019-02-23T10:12:32.484Z,8.87
2019-02-23T10:15:03.233Z,8.53
2019-02-23T10:17:33.985Z,8.00
2019-02-23T10:20:04.910Z,8.17
2019-02-23T10:22:35.669Z,8.87
2019-02-23T10:25:06.602Z,8.20
2019-02-23T10:27:37.379Z,8.80
2019-02-23T10:30:09.076Z,8.47
2019-02-23T10:32:39.824Z,7.97
2019-02-23T10:35:10.960Z,7.87
2019-02-23T10:37:41.687Z,8.10
2019-02-23T10:40:12.510Z,7.57
2019-02-23T10:42:43.187Z,8.40
2019-02-23T10:45:14.020Z,7.97
2019-02-23T10:47:44.739Z,7.93
2019-02-23T10:50:15.737Z,8.50
2019-02-23T10:52:46.323Z,7.53
2019-02-23T10:55:17.150Z,8.17
2019-02-23T10:57:48.024Z,7.90
2019-02-23T11:00:20.512Z,7.57
2019-02-23T11:02:54.360Z,7.43
2019-02-23T11:05:25.104Z,7.30
2019-02-23T11:07:55.913Z,7.10
2019-02-23T11:10:26.607Z,6.93
2019-02-23T11:12:57.353Z,6.70
2019-02-23T11:15:28.090Z,7.20
2019-02-23T11:17:58.863Z,7.80
2019-02-23T11:20:29.872Z,6.80
2019-02-23T11:23:06.011Z,6.83
2019-02-23T11:25:37.263Z,6.77
2019-02-23T11:28:12.846Z,7.20
2019-02-23T11:30:44.014Z,6.77
2019-02-23T11:33:15.190Z,6.00
2019-02-23T11:35:46.024Z,6.47
2019-02-23T11:38:16.812Z,6.50
2019-02-23T11:40:48.027Z,5.73
2019-02-23T11:43:18.893Z,6.50
2019-02-23T11:45:49.751Z,5.37
2019-02-23T11:48:21.291Z,5.80
2019-02-23T11:50:52.441Z,5.27
2019-02-23T11:53:23.277Z,5.37
2019-02-23T11:55:54.206Z,5.43
2019-02-23T11:58:30.575Z,5.50
2019-02-23T12:01:06.183Z,5.50
2019-02-23T12:03:41.406Z,5.83
2019-02-23T12:06:12.564Z,5.33
2019-02-23T12:08:49.152Z,5.13
2019-02-23T12:11:20.548Z,5.30
2019-02-23T12:13:56.303Z,6.13
2019-02-23T12:16:32.084Z,5.73
2019-02-23T12:19:02.871Z,5.83
2019-02-23T12:21:33.698Z,5.40
2019-02-23T12:24:06.269Z,5.80
2019-02-23T12:26:36.718Z,5.53
2019-02-23T12:29:07.368Z,5.40
2019-02-23T12:31:38.081Z,5.47
2019-02-23T12:34:08.777Z,5.30
2019-02-23T12:36:39.515Z,5.30
2019-02-23T12:39:10.242Z,5.27
2019-02-23T12:41:40.922Z,5.00
2019-02-23T12:44:11.679Z,5.30
2019-02-23T12:46:42.399Z,5.37
2019-02-23T12:49:13.086Z,5.00
2019-02-23T12:51:43.766Z,5.37
2019-02-23T12:54:16.938Z,5.53
2019-02-23T12:56:46.945Z,6.00
2019-02-23T12:59:17.870Z,5.30
2019-02-23T13:01:48.667Z,5.93
2019-02-23T13:04:19.402Z,5.80
2019-02-23T13:06:50.188Z,5.47
2019-02-23T13:09:23.568Z,6.00
2019-02-23T13:12:16.470Z,5.20
2019-02-23T13:15:36.365Z,6.23
2019-02-23T13:18:21.597Z,5.50
2019-02-23T13:21:23.822Z,5.67
2019-02-23T13:24:43.805Z,5.37
2019-02-23T13:28:07.454Z,5.63
2019-02-23T13:31:40.406Z,5.57
2019-02-23T13:34:37.889Z,5.40
2019-02-23T13:37:24.759Z,5.53
2019-02-23T13:40:19.893Z,5.63
2019-02-23T13:43:44.199Z,4.97
2019-02-23T13:46:55.926Z,5.23
2019-02-23T13:49:56.900Z,5.73
2019-02-23T13:53:03.996Z,5.80
2019-02-23T13:55:59.840Z,5.63
2019-02-23T13:58:54.619Z,6.17
2019-02-23T14:02:01.586Z,6.10
2019-02-23T14:05:18.081Z,6.03
2019-02-23T14:09:02.972Z,6.30
2019-02-23T14:12:25.827Z,6.37
2019-02-23T14:15:16.165Z,5.97
2019-02-23T14:18:13.497Z,5.93
2019-02-23T14:21:27.072Z,6.47
2019-02-23T14:24:31.321Z,5.40
2019-02-23T14:27:33.874Z,6.20
2019-02-23T14:30:47.408Z,6.80
2019-02-23T14:33:57.707Z,5.50
2019-02-23T14:37:04.524Z,6.67
2019-02-23T14:40:09.574Z,7.63
2019-02-23T14:43:17.402Z,8.53
2019-02-23T14:46:32.183Z,5.57
2019-02-23T14:49:16.871Z,5.77
2019-02-23T14:52:23.990Z,6.23
2019-02-23T14:55:20.343Z,8.00
2019-02-23T14:58:28.555Z,6.67
2019-02-23T15:01:44.099Z,6.70
2019-02-23T15:05:01.992Z,6.47
2019-02-23T15:07:48.362Z,5.80
2019-02-23T15:10:44.925Z,9.53
2019-02-23T15:14:18.209Z,6.30
2019-02-23T15:17:24.262Z,6.53
2019-02-23T15:20:25.884Z,6.67
2019-02-23T15:23:27.929Z,6.10
2019-02-23T15:26:35.673Z,5.80
2019-02-23T15:29:50.410Z,5.67
2019-02-23T15:32:55.964Z,5.63
2019-02-23T15:35:48.249Z,5.83
2019-02-23T15:38:31.369Z,5.93
2019-02-23T15:41:52.121Z,5.47
2019-02-23T15:45:16.428Z,5.83
2019-02-23T15:48:26.101Z,6.40
2019-02-23T15:50:56.922Z,5.90
2019-02-23T15:53:27.652Z,5.70
2019-02-23T15:55:58.439Z,5.87
2019-02-23T15:58:29.162Z,5.90
2019-02-23T16:00:59.889Z,5.83
2019-02-23T16:03:30.715Z,6.67
2019-02-23T16:06:01.401Z,6.03
2019-02-23T16:08:32.179Z,6.47
2019-02-23T16:11:02.938Z,5.67
2019-02-23T16:13:33.720Z,5.67
2019-02-23T16:16:04.446Z,6.30
2019-02-23T16:18:35.222Z,6.57
2019-02-23T16:21:05.949Z,6.20
2019-02-23T16:23:36.833Z,6.47
2019-02-23T16:26:07.552Z,6.47
2019-02-23T16:28:38.334Z,6.67
2019-02-23T16:31:09.112Z,7.03
2019-02-23T16:33:39.840Z,6.50
2019-02-23T16:36:10.608Z,6.67
2019-02-23T16:38:41.362Z,6.83
2019-02-23T16:41:12.181Z,7.00
2019-02-23T16:43:42.937Z,6.90
2019-02-23T16:46:13.651Z,8.93
2019-02-23T16:48:44.427Z,6.57
2019-02-23T16:51:15.153Z,8.00
2019-02-23T16:53:48.736Z,7.17
2019-02-23T16:56:18.301Z,7.40
2019-02-23T16:58:49.034Z,7.97
2019-02-23T17:01:19.738Z,6.80
2019-02-23T17:03:50.526Z,7.00
2019-02-23T17:06:21.361Z,7.07
2019-02-23T17:08:52.197Z,6.90
2019-02-23T17:11:22.903Z,6.63
2019-02-23T17:13:53.659Z,6.40
2019-02-23T17:16:24.335Z,7.40
2019-02-23T17:18:55.106Z,6.87
2019-02-23T17:21:25.828Z,7.17
2019-02-23T17:23:56.565Z,7.17
2019-02-23T17:26:27.301Z,6.87
2019-02-23T17:28:58.095Z,6.97
2019-02-23T17:31:28.854Z,6.87
2019-02-23T17:33:59.539Z,7.23
2019-02-23T17:36:30.325Z,7.67
2019-02-23T17:39:01.091Z,7.90
2019-02-23T17:41:31.878Z,8.57
2019-02-23T17:44:02.565Z,9.40
2019-02-23T17:46:33.279Z,8.50
2019-02-23T17:49:04.067Z,8.57
2019-02-23T17:51:34.762Z,8.57
2019-02-23T17:54:05.481Z,8.80
2019-02-23T17:56:36.225Z,8.60
2019-02-23T17:59:06.921Z,8.43
2019-02-23T18:01:38.409Z,8.60
2019-02-23T18:04:09.125Z,13.37
2019-02-23T18:06:39.820Z,12.00
2019-02-23T18:09:10.516Z,11.07
2019-02-23T18:11:41.244Z,11.73
2019-02-23T18:14:11.993Z,8.90
2019-02-23T18:16:42.704Z,9.93
2019-02-23T18:19:13.393Z,9.87
2019-02-23T18:21:44.148Z,8.00
2019-02-23T18:24:14.954Z,9.10
2019-02-23T18:26:45.672Z,9.33
2019-02-23T18:29:16.434Z,9.97
2019-02-23T18:31:47.183Z,8.50
2019-02-23T18:34:17.950Z,7.83
2019-02-23T18:36:48.696Z,6.53
2019-02-23T18:39:19.453Z,8.30
2019-02-23T18:41:50.188Z,8.00
2019-02-23T18:44:20.858Z,8.63
2019-02-23T18:46:51.601Z,8.60
2019-02-23T18:49:22.370Z,8.60
2019-02-23T18:51:53.335Z,7.73
2019-02-23T18:54:24.060Z,9.03
2019-02-23T18:56:54.866Z,8.67
2019-02-23T18:59:25.581Z,8.77
2019-02-23T19:01:56.260Z,6.63
2019-02-23T19:04:27.136Z,6.83
2019-02-23T19:06:57.853Z,6.60
2019-02-23T19:09:28.619Z,7.83
2019-02-23T19:11:59.353Z,7.13
2019-02-23T19:14:30.019Z,7.23
2019-02-23T19:17:00.826Z,6.93
2019-02-23T19:19:31.531Z,6.57
2019-02-23T19:22:02.298Z,6.57
2019-02-23T19:24:33.044Z,7.40
2019-02-23T19:27:03.831Z,7.27
2019-02-23T19:29:34.551Z,6.13
2019-02-23T19:32:05.314Z,6.83
2019-02-23T19:34:36.010Z,6.67
2019-02-23T19:37:06.775Z,7.27
2019-02-23T19:39:37.494Z,7.27
2019-02-23T19:42:08.248Z,7.30
2019-02-23T19:44:39.005Z,7.03
2019-02-23T19:47:16.585Z,7.40
2019-02-23T19:49:47.377Z,6.93
2019-02-23T19:52:21.014Z,7.20
2019-02-23T19:54:51.751Z,8.03
2019-02-23T19:57:22.542Z,7.70
2019-02-23T19:59:53.594Z,7.23
2019-02-23T20:02:24.431Z,7.17
2019-02-23T20:04:55.149Z,7.53
2019-02-23T20:07:25.875Z,7.40
2019-02-23T20:09:56.640Z,7.50
2019-02-23T20:12:28.243Z,7.37
2019-02-23T20:14:59.163Z,7.10
2019-02-23T20:17:29.948Z,7.07
2019-02-23T20:20:00.674Z,6.87
2019-02-23T20:22:31.413Z,6.97
2019-02-23T20:25:02.188Z,7.40
2019-02-23T20:27:32.906Z,6.73
2019-02-23T20:30:03.599Z,7.13
2019-02-23T20:32:34.306Z,7.40
2019-02-23T20:35:05.183Z,7.50
2019-02-23T20:37:35.949Z,7.43
2019-02-23T20:40:07.403Z,6.47
2019-02-23T20:42:38.122Z,7.07
2019-02-23T20:45:09.188Z,6.47
2019-02-23T20:47:39.946Z,6.73
2019-02-23T20:50:10.720Z,7.77
2019-02-23T20:52:41.477Z,7.93
2019-02-23T20:55:12.243Z,8.83
2019-02-23T20:57:43.030Z,11.50
2019-02-23T21:00:13.755Z,13.07
2019-02-23T21:02:44.486Z,12.80
2019-02-23T21:05:15.258Z,15.93
2019-02-23T21:07:46.003Z,16.23
2019-02-23T21:10:16.750Z,14.40
2019-02-23T21:12:47.476Z,13.70
2019-02-23T21:15:18.234Z,14.70
2019-02-23T21:17:48.958Z,13.50
2019-02-23T21:20:19.746Z,11.53
2019-02-23T21:22:50.451Z,10.93
2019-02-23T21:25:21.271Z,10.93
2019-02-23T21:27:52.000Z,10.43
2019-02-23T21:30:22.755Z,7.67
2019-02-23T21:32:53.607Z,8.77
2019-02-23T21:35:24.333Z,6.77
2019-02-23T21:37:55.168Z,6.33
2019-02-23T21:40:25.909Z,6.73
2019-02-23T21:43:15.796Z,6.87
2019-02-23T21:45:46.573Z,6.13
2019-02-23T21:48:17.290Z,5.93
2019-02-23T21:50:48.107Z,6.20
2019-02-23T21:53:18.842Z,6.03
2019-02-23T21:55:49.678Z,5.67
2019-02-23T21:58:20.385Z,6.10
2019-02-23T22:00:51.251Z,6.80
2019-02-23T22:03:21.968Z,12.60
2019-02-23T22:05:52.710Z,12.70
2019-02-23T22:08:23.552Z,10.53
2019-02-23T22:10:54.328Z,10.10
2019-02-23T22:13:25.129Z,9.23
2019-02-23T22:15:55.982Z,6.77
2019-02-23T22:18:26.747Z,7.60
2019-02-23T22:20:57.443Z,7.17
2019-02-23T22:23:28.200Z,6.73
2019-02-23T22:25:58.885Z,6.40
2019-02-23T22:28:29.596Z,7.57
2019-02-23T22:31:00.259Z,7.47
2019-02-23T22:33:31.012Z,7.37
2019-02-23T22:36:01.748Z,7.00
2019-02-23T22:38:32.495Z,6.80
2019-02-23T22:41:03.230Z,7.17
2019-02-23T22:43:34.037Z,6.93
2019-02-23T22:46:04.753Z,7.03
2019-02-23T22:48:35.553Z,7.33
2019-02-23T22:51:06.235Z,7.90
2019-02-23T22:53:36.952Z,7.70
2019-02-23T22:56:07.719Z,7.83
2019-02-23T22:58:38.485Z,8.40
2019-02-23T23:01:09.295Z,8.93
2019-02-23T23:03:40.024Z,8.60
2019-02-23T23:06:10.773Z,8.13
2019-02-23T23:08:41.530Z,8.40
2019-02-23T23:11:12.265Z,8.80
2019-02-23T23:13:43.053Z,8.50
2019-02-23T23:16:13.778Z,8.63
2019-02-23T23:18:44.584Z,9.33
2019-02-23T23:21:15.271Z,10.10
2019-02-23T23:23:46.028Z,9.23
2019-02-23T23:26:16.793Z,8.77
2019-02-23T23:28:47.569Z,8.90
2019-02-23T23:31:18.347Z,8.27
2019-02-23T23:33:49.110Z,7.90
2019-02-23T23:36:19.827Z,7.60
2019-02-23T23:38:50.484Z,8.30
2019-02-23T23:41:21.299Z,7.90
2019-02-23T23:43:52.038Z,8.43
2019-02-23T23:46:22.686Z,8.73
2019-02-23T23:48:53.529Z,8.97
2019-02-23T23:51:24.396Z,8.20
2019-02-23T23:53:55.172Z,7.20
2019-02-23T23:56:25.829Z,7.33
2019-02-23T23:58:56.550Z,7.67
